sensor_id;sensor_type;location;lat;lon;timestamp;temperature;humidity
70947;DHT22;58605;48.700;8.760;2023-07-09T00:01:45;19.30;85.00
70947;DHT22;58605;48.700;8.760;2023-07-09T00:04:12;19.20;85.30
70947;DHT22;58605;48.700;8.760;2023-07-09T00:06:39;19.20;85.80
70947;DHT22;58605;48.700;8.760;2023-07-09T00:09:12;19.30;85.70
70947;DHT22;58605;48.700;8.760;2023-07-09T00:11:40;19.30;86.40
70947;DHT22;58605;48.700;8.760;2023-07-09T00:14:07;19.30;86.80
70947;DHT22;58605;48.700;8.760;2023-07-09T00:16:34;19.30;86.90
70947;DHT22;58605;48.700;8.760;2023-07-09T00:19:00;19.30;87.00
70947;DHT22;58605;48.700;8.760;2023-07-09T00:21:29;19.20;87.50
70947;DHT22;58605;48.700;8.760;2023-07-09T00:24:02;19.20;88.20
70947;DHT22;58605;48.700;8.760;2023-07-09T00:26:39;19.10;88.20
70947;DHT22;58605;48.700;8.760;2023-07-09T00:29:09;19.00;89.90
70947;DHT22;58605;48.700;8.760;2023-07-09T00:31:42;19.00;90.70
70947;DHT22;58605;48.700;8.760;2023-07-09T00:34:31;18.90;91.20
70947;DHT22;58605;48.700;8.760;2023-07-09T00:37:07;19.00;91.60
70947;DHT22;58605;48.700;8.760;2023-07-09T00:39:41;19.10;91.80
70947;DHT22;58605;48.700;8.760;2023-07-09T00:42:16;19.10;91.10
70947;DHT22;58605;48.700;8.760;2023-07-09T00:44:51;19.00;91.40
70947;DHT22;58605;48.700;8.760;2023-07-09T00:47:26;18.90;92.20
70947;DHT22;58605;48.700;8.760;2023-07-09T00:50:11;18.90;93.60
70947;DHT22;58605;48.700;8.760;2023-07-09T00:52:50;19.00;93.60
70947;DHT22;58605;48.700;8.760;2023-07-09T00:55:30;18.90;92.90
70947;DHT22;58605;48.700;8.760;2023-07-09T00:58:10;18.80;93.90
70947;DHT22;58605;48.700;8.760;2023-07-09T01:00:47;18.80;94.30
70947;DHT22;58605;48.700;8.760;2023-07-09T01:03:34;18.70;94.90
70947;DHT22;58605;48.700;8.760;2023-07-09T01:06:05;18.60;96.00
70947;DHT22;58605;48.700;8.760;2023-07-09T01:08:36;18.60;95.90
70947;DHT22;58605;48.700;8.760;2023-07-09T01:11:16;18.50;96.60
70947;DHT22;58605;48.700;8.760;2023-07-09T01:13:49;18.50;97.50
70947;DHT22;58605;48.700;8.760;2023-07-09T01:16:27;18.40;98.20
70947;DHT22;58605;48.700;8.760;2023-07-09T01:19:02;18.40;99.40
70947;DHT22;58605;48.700;8.760;2023-07-09T01:21:35;18.30;99.20
70947;DHT22;58605;48.700;8.760;2023-07-09T01:24:47;18.30;99.90
70947;DHT22;58605;48.700;8.760;2023-07-09T01:27:08;18.10;99.90
70947;DHT22;58605;48.700;8.760;2023-07-09T01:29:40;18.20;99.90
70947;DHT22;58605;48.700;8.760;2023-07-09T01:32:14;18.20;99.90
70947;DHT22;58605;48.700;8.760;2023-07-09T01:34:48;18.10;99.90
70947;DHT22;58605;48.700;8.760;2023-07-09T01:37:23;18.10;99.90
70947;DHT22;58605;48.700;8.760;2023-07-09T01:39:52;18.00;99.90
70947;DHT22;58605;48.700;8.760;2023-07-09T01:42:25;18.00;99.90
70947;DHT22;58605;48.700;8.760;2023-07-09T01:44:57;18.00;99.90
70947;DHT22;58605;48.700;8.760;2023-07-09T01:47:26;18.00;99.90
70947;DHT22;58605;48.700;8.760;2023-07-09T01:49:56;18.00;99.90
70947;DHT22;58605;48.700;8.760;2023-07-09T01:52:29;17.90;99.90
70947;DHT22;58605;48.700;8.760;2023-07-09T01:54:56;17.80;99.90
70947;DHT22;58605;48.700;8.760;2023-07-09T01:57:32;17.70;99.90
70947;DHT22;58605;48.700;8.760;2023-07-09T02:00:03;17.60;99.90
70947;DHT22;58605;48.700;8.760;2023-07-09T02:02:38;17.60;99.90
70947;DHT22;58605;48.700;8.760;2023-07-09T02:05:15;17.60;99.90
70947;DHT22;58605;48.700;8.760;2023-07-09T02:10:52;17.70;99.90
70947;DHT22;58605;48.700;8.760;2023-07-09T02:13:23;17.80;99.90
70947;DHT22;58605;48.700;8.760;2023-07-09T02:15:52;17.80;99.90
70947;DHT22;58605;48.700;8.760;2023-07-09T02:18:19;17.80;99.90
70947;DHT22;58605;48.700;8.760;2023-07-09T02:20:56;17.70;99.90
70947;DHT22;58605;48.700;8.760;2023-07-09T02:23:26;17.60;99.90
70947;DHT22;58605;48.700;8.760;2023-07-09T02:26:04;17.50;99.90
70947;DHT22;58605;48.700;8.760;2023-07-09T02:28:42;17.60;99.90
70947;DHT22;58605;48.700;8.760;2023-07-09T02:31:11;17.70;99.90
70947;DHT22;58605;48.700;8.760;2023-07-09T02:33:37;17.50;99.90
70947;DHT22;58605;48.700;8.760;2023-07-09T02:36:06;17.40;99.90
70947;DHT22;58605;48.700;8.760;2023-07-09T02:38:40;17.30;99.90
70947;DHT22;58605;48.700;8.760;2023-07-09T02:41:10;17.40;99.90
70947;DHT22;58605;48.700;8.760;2023-07-09T02:43:43;17.50;99.90
70947;DHT22;58605;48.700;8.760;2023-07-09T02:46:16;17.60;99.90
70947;DHT22;58605;48.700;8.760;2023-07-09T02:48:45;17.60;99.90
70947;DHT22;58605;48.700;8.760;2023-07-09T02:51:15;17.40;99.90
70947;DHT22;58605;48.700;8.760;2023-07-09T02:53:47;17.40;99.90
70947;DHT22;58605;48.700;8.760;2023-07-09T02:56:19;17.20;99.90
70947;DHT22;58605;48.700;8.760;2023-07-09T02:58:48;17.10;99.90
70947;DHT22;58605;48.700;8.760;2023-07-09T03:01:17;17.00;99.90
70947;DHT22;58605;48.700;8.760;2023-07-09T03:03:47;17.00;99.90
70947;DHT22;58605;48.700;8.760;2023-07-09T03:06:14;16.90;99.90
70947;DHT22;58605;48.700;8.760;2023-07-09T03:08:40;16.90;99.90
70947;DHT22;58605;48.700;8.760;2023-07-09T03:11:12;16.90;99.90
70947;DHT22;58605;48.700;8.760;2023-07-09T03:13:40;16.90;99.90
70947;DHT22;58605;48.700;8.760;2023-07-09T03:16:12;16.80;99.90
70947;DHT22;58605;48.700;8.760;2023-07-09T03:18:42;16.80;99.90
70947;DHT22;58605;48.700;8.760;2023-07-09T03:21:19;16.80;99.90
70947;DHT22;58605;48.700;8.760;2023-07-09T03:23:48;16.80;99.90
70947;DHT22;58605;48.700;8.760;2023-07-09T03:26:14;16.80;99.90
70947;DHT22;58605;48.700;8.760;2023-07-09T03:28:43;16.70;99.90
70947;DHT22;58605;48.700;8.760;2023-07-09T03:31:09;16.70;99.90
70947;DHT22;58605;48.700;8.760;2023-07-09T03:33:41;16.60;99.90
70947;DHT22;58605;48.700;8.760;2023-07-09T03:36:10;16.60;99.90
70947;DHT22;58605;48.700;8.760;2023-07-09T03:38:38;16.60;99.90
70947;DHT22;58605;48.700;8.760;2023-07-09T03:41:05;16.50;99.90
70947;DHT22;58605;48.700;8.760;2023-07-09T03:43:34;16.50;99.90
70947;DHT22;58605;48.700;8.760;2023-07-09T03:46:04;16.50;99.90
70947;DHT22;58605;48.700;8.760;2023-07-09T03:48:31;16.40;99.90
70947;DHT22;58605;48.700;8.760;2023-07-09T03:51:00;16.40;99.90
70947;DHT22;58605;48.700;8.760;2023-07-09T03:53:27;16.40;99.90
70947;DHT22;58605;48.700;8.760;2023-07-09T03:55:55;16.50;99.90
70947;DHT22;58605;48.700;8.760;2023-07-09T03:58:23;16.60;99.90
70947;DHT22;58605;48.700;8.760;2023-07-09T04:00:54;16.60;99.90
70947;DHT22;58605;48.700;8.760;2023-07-09T04:03:28;16.60;99.90
70947;DHT22;58605;48.700;8.760;2023-07-09T04:05:57;16.60;99.90
70947;DHT22;58605;48.700;8.760;2023-07-09T04:08:26;16.60;99.90
70947;DHT22;58605;48.700;8.760;2023-07-09T04:10:53;16.70;99.90
70947;DHT22;58605;48.700;8.760;2023-07-09T04:13:21;16.70;99.90
70947;DHT22;58605;48.700;8.760;2023-07-09T04:15:49;16.70;99.90
70947;DHT22;58605;48.700;8.760;2023-07-09T04:18:24;16.80;99.90
70947;DHT22;58605;48.700;8.760;2023-07-09T04:20:53;17.00;99.90
70947;DHT22;58605;48.700;8.760;2023-07-09T04:23:21;17.10;99.90
70947;DHT22;58605;48.700;8.760;2023-07-09T04:25:55;17.20;99.90
70947;DHT22;58605;48.700;8.760;2023-07-09T04:28:26;17.30;99.90
70947;DHT22;58605;48.700;8.760;2023-07-09T04:31:00;17.30;99.90
70947;DHT22;58605;48.700;8.760;2023-07-09T04:33:31;17.30;99.90
70947;DHT22;58605;48.700;8.760;2023-07-09T04:36:08;17.30;99.90
70947;DHT22;58605;48.700;8.760;2023-07-09T04:38:44;17.40;99.90
70947;DHT22;58605;48.700;8.760;2023-07-09T04:41:17;17.50;99.90
70947;DHT22;58605;48.700;8.760;2023-07-09T04:43:50;17.60;99.90
70947;DHT22;58605;48.700;8.760;2023-07-09T04:46:21;17.60;99.90
70947;DHT22;58605;48.700;8.760;2023-07-09T04:49:10;17.40;99.90
70947;DHT22;58605;48.700;8.760;2023-07-09T04:51:40;17.40;99.90
70947;DHT22;58605;48.700;8.760;2023-07-09T04:54:16;17.40;99.90
70947;DHT22;58605;48.700;8.760;2023-07-09T04:56:58;17.40;99.90
70947;DHT22;58605;48.700;8.760;2023-07-09T04:59:47;17.40;99.90
70947;DHT22;58605;48.700;8.760;2023-07-09T05:02:25;17.70;99.90
70947;DHT22;58605;48.700;8.760;2023-07-09T05:05:07;17.90;99.90
70947;DHT22;58605;48.700;8.760;2023-07-09T05:07:59;18.10;99.90
70947;DHT22;58605;48.700;8.760;2023-07-09T05:10:35;18.30;99.90
70947;DHT22;58605;48.700;8.760;2023-07-09T05:13:43;18.40;99.90
70947;DHT22;58605;48.700;8.760;2023-07-09T05:16:55;18.60;99.90
70947;DHT22;58605;48.700;8.760;2023-07-09T05:42:26;19.40;99.90
70947;DHT22;58605;48.700;8.760;2023-07-09T05:44:54;19.50;99.90
70947;DHT22;58605;48.700;8.760;2023-07-09T05:47:24;19.60;99.90
70947;DHT22;58605;48.700;8.760;2023-07-09T05:49:55;19.80;99.90
70947;DHT22;58605;48.700;8.760;2023-07-09T05:52:27;20.00;99.90
70947;DHT22;58605;48.700;8.760;2023-07-09T05:54:55;20.10;99.90
70947;DHT22;58605;48.700;8.760;2023-07-09T05:57:34;20.20;98.80
70947;DHT22;58605;48.700;8.760;2023-07-09T06:00:03;20.40;98.10
70947;DHT22;58605;48.700;8.760;2023-07-09T06:02:32;20.50;96.50
70947;DHT22;58605;48.700;8.760;2023-07-09T06:05:11;20.70;95.60
70947;DHT22;58605;48.700;8.760;2023-07-09T06:07:46;20.80;94.80
70947;DHT22;58605;48.700;8.760;2023-07-09T06:10:16;20.90;93.40
70947;DHT22;58605;48.700;8.760;2023-07-09T06:12:52;21.00;92.60
70947;DHT22;58605;48.700;8.760;2023-07-09T06:15:18;21.10;92.40
70947;DHT22;58605;48.700;8.760;2023-07-09T06:17:45;21.30;92.90
70947;DHT22;58605;48.700;8.760;2023-07-09T06:20:11;21.40;91.70
70947;DHT22;58605;48.700;8.760;2023-07-09T06:22:38;21.50;90.80
70947;DHT22;58605;48.700;8.760;2023-07-09T06:25:05;21.70;91.10
70947;DHT22;58605;48.700;8.760;2023-07-09T06:27:33;21.90;90.30
70947;DHT22;58605;48.700;8.760;2023-07-09T06:30:04;22.00;88.50
70947;DHT22;58605;48.700;8.760;2023-07-09T06:32:31;22.20;87.90
70947;DHT22;58605;48.700;8.760;2023-07-09T06:34:57;22.40;88.30
70947;DHT22;58605;48.700;8.760;2023-07-09T06:37:24;22.60;87.40
70947;DHT22;58605;48.700;8.760;2023-07-09T06:39:50;22.70;84.00
70947;DHT22;58605;48.700;8.760;2023-07-09T06:42:21;22.90;84.30
70947;DHT22;58605;48.700;8.760;2023-07-09T06:44:47;23.00;84.00
70947;DHT22;58605;48.700;8.760;2023-07-09T06:47:15;23.20;82.00
70947;DHT22;58605;48.700;8.760;2023-07-09T06:49:41;23.30;82.00
70947;DHT22;58605;48.700;8.760;2023-07-09T06:52:08;23.50;79.90
70947;DHT22;58605;48.700;8.760;2023-07-09T06:54:34;23.60;79.60
70947;DHT22;58605;48.700;8.760;2023-07-09T06:57:00;23.80;78.60
70947;DHT22;58605;48.700;8.760;2023-07-09T06:59:26;24.00;77.90
70947;DHT22;58605;48.700;8.760;2023-07-09T07:01:53;24.20;78.30
70947;DHT22;58605;48.700;8.760;2023-07-09T07:04:21;24.30;77.30
70947;DHT22;58605;48.700;8.760;2023-07-09T07:06:47;24.40;76.70
70947;DHT22;58605;48.700;8.760;2023-07-09T07:09:13;24.30;76.70
70947;DHT22;58605;48.700;8.760;2023-07-09T07:11:39;24.30;76.20
70947;DHT22;58605;48.700;8.760;2023-07-09T07:14:06;24.30;76.40
70947;DHT22;58605;48.700;8.760;2023-07-09T07:16:32;24.30;75.70
70947;DHT22;58605;48.700;8.760;2023-07-09T07:18:58;24.20;75.90
70947;DHT22;58605;48.700;8.760;2023-07-09T07:21:26;24.40;75.50
70947;DHT22;58605;48.700;8.760;2023-07-09T07:23:52;24.40;74.90
70947;DHT22;58605;48.700;8.760;2023-07-09T07:26:18;24.40;76.10
70947;DHT22;58605;48.700;8.760;2023-07-09T07:28:45;24.40;74.70
70947;DHT22;58605;48.700;8.760;2023-07-09T07:31:12;24.40;74.60
70947;DHT22;58605;48.700;8.760;2023-07-09T07:33:40;24.40;74.30
70947;DHT22;58605;48.700;8.760;2023-07-09T07:36:08;24.30;74.30
70947;DHT22;58605;48.700;8.760;2023-07-09T07:38:36;24.20;74.40
70947;DHT22;58605;48.700;8.760;2023-07-09T07:41:02;24.10;74.40
70947;DHT22;58605;48.700;8.760;2023-07-09T07:43:28;24.10;74.50
70947;DHT22;58605;48.700;8.760;2023-07-09T07:45:55;24.00;74.40
70947;DHT22;58605;48.700;8.760;2023-07-09T07:48:21;24.00;74.30
70947;DHT22;58605;48.700;8.760;2023-07-09T07:50:47;23.90;74.20
70947;DHT22;58605;48.700;8.760;2023-07-09T07:53:14;23.90;74.40
70947;DHT22;58605;48.700;8.760;2023-07-09T07:55:42;23.80;74.00
70947;DHT22;58605;48.700;8.760;2023-07-09T07:58:10;23.80;74.20
70947;DHT22;58605;48.700;8.760;2023-07-09T08:00:37;23.80;74.20
70947;DHT22;58605;48.700;8.760;2023-07-09T08:03:07;23.70;74.00
70947;DHT22;58605;48.700;8.760;2023-07-09T08:05:39;23.70;74.10
70947;DHT22;58605;48.700;8.760;2023-07-09T08:08:06;23.70;73.60
70947;DHT22;58605;48.700;8.760;2023-07-09T08:10:37;23.60;73.40
70947;DHT22;58605;48.700;8.760;2023-07-09T08:13:05;23.60;72.60
70947;DHT22;58605;48.700;8.760;2023-07-09T08:15:33;23.70;73.30
70947;DHT22;58605;48.700;8.760;2023-07-09T08:18:00;23.70;73.30
70947;DHT22;58605;48.700;8.760;2023-07-09T08:20:26;23.70;73.20
70947;DHT22;58605;48.700;8.760;2023-07-09T08:22:53;23.70;73.10
70947;DHT22;58605;48.700;8.760;2023-07-09T08:25:19;23.70;72.80
70947;DHT22;58605;48.700;8.760;2023-07-09T08:27:45;23.70;72.80
70947;DHT22;58605;48.700;8.760;2023-07-09T08:30:16;23.70;72.60
70947;DHT22;58605;48.700;8.760;2023-07-09T08:32:45;23.70;72.60
70947;DHT22;58605;48.700;8.760;2023-07-09T08:35:16;23.70;72.30
70947;DHT22;58605;48.700;8.760;2023-07-09T08:37:45;23.60;72.50
70947;DHT22;58605;48.700;8.760;2023-07-09T08:40:14;23.70;72.50
70947;DHT22;58605;48.700;8.760;2023-07-09T08:42:43;23.80;72.20
70947;DHT22;58605;48.700;8.760;2023-07-09T08:48:40;24.00;71.00
70947;DHT22;58605;48.700;8.760;2023-07-09T09:04:31;23.50;73.70
70947;DHT22;58605;48.700;8.760;2023-07-09T09:07:03;23.50;73.60
70947;DHT22;58605;48.700;8.760;2023-07-09T09:09:38;23.60;72.40
70947;DHT22;58605;48.700;8.760;2023-07-09T09:12:15;23.70;72.00
70947;DHT22;58605;48.700;8.760;2023-07-09T09:14:48;23.60;73.10
70947;DHT22;58605;48.700;8.760;2023-07-09T09:17:19;23.50;73.20
70947;DHT22;58605;48.700;8.760;2023-07-09T09:20:09;23.50;73.40
70947;DHT22;58605;48.700;8.760;2023-07-09T09:22:52;23.60;73.20
70947;DHT22;58605;48.700;8.760;2023-07-09T09:25:26;23.60;73.00
70947;DHT22;58605;48.700;8.760;2023-07-09T09:27:56;23.60;73.10
70947;DHT22;58605;48.700;8.760;2023-07-09T09:30:24;23.60;73.60
70947;DHT22;58605;48.700;8.760;2023-07-09T09:33:00;23.60;72.60
70947;DHT22;58605;48.700;8.760;2023-07-09T09:35:31;23.70;72.20
70947;DHT22;58605;48.700;8.760;2023-07-09T09:37:58;23.80;71.60
70947;DHT22;58605;48.700;8.760;2023-07-09T09:40:27;23.90;71.10
70947;DHT22;58605;48.700;8.760;2023-07-09T09:42:59;24.00;70.40
70947;DHT22;58605;48.700;8.760;2023-07-09T09:45:28;24.00;70.60
70947;DHT22;58605;48.700;8.760;2023-07-09T09:47:59;24.00;70.40
70947;DHT22;58605;48.700;8.760;2023-07-09T09:50:50;24.00;70.80
70947;DHT22;58605;48.700;8.760;2023-07-09T09:53:34;24.10;70.30
70947;DHT22;58605;48.700;8.760;2023-07-09T09:56:11;24.00;70.60
70947;DHT22;58605;48.700;8.760;2023-07-09T09:59:20;24.10;71.00
70947;DHT22;58605;48.700;8.760;2023-07-09T10:01:56;24.00;70.60
70947;DHT22;58605;48.700;8.760;2023-07-09T10:04:23;24.10;70.40
70947;DHT22;58605;48.700;8.760;2023-07-09T10:10:21;24.20;69.60
70947;DHT22;58605;48.700;8.760;2023-07-09T10:12:53;24.30;69.60
70947;DHT22;58605;48.700;8.760;2023-07-09T10:15:31;24.30;69.10
70947;DHT22;58605;48.700;8.760;2023-07-09T10:18:02;24.20;69.50
70947;DHT22;58605;48.700;8.760;2023-07-09T10:21:00;24.20;69.60
70947;DHT22;58605;48.700;8.760;2023-07-09T10:23:34;24.20;69.20
70947;DHT22;58605;48.700;8.760;2023-07-09T10:26:09;24.20;68.90
70947;DHT22;58605;48.700;8.760;2023-07-09T10:28:53;24.30;68.70
70947;DHT22;58605;48.700;8.760;2023-07-09T10:31:32;24.20;68.40
70947;DHT22;58605;48.700;8.760;2023-07-09T10:34:29;24.30;68.10
70947;DHT22;58605;48.700;8.760;2023-07-09T10:37:40;24.30;68.20
70947;DHT22;58605;48.700;8.760;2023-07-09T10:40:12;24.30;64.00
70947;DHT22;58605;48.700;8.760;2023-07-09T10:42:45;24.50;66.10
70947;DHT22;58605;48.700;8.760;2023-07-09T10:45:19;24.40;66.00
70947;DHT22;58605;48.700;8.760;2023-07-09T10:47:49;24.50;66.10
70947;DHT22;58605;48.700;8.760;2023-07-09T10:53:37;24.50;67.20
70947;DHT22;58605;48.700;8.760;2023-07-09T10:56:11;24.50;65.60
70947;DHT22;58605;48.700;8.760;2023-07-09T10:58:43;24.50;65.60
70947;DHT22;58605;48.700;8.760;2023-07-09T11:01:24;24.60;65.20
70947;DHT22;58605;48.700;8.760;2023-07-09T11:04:25;24.60;64.90
70947;DHT22;58605;48.700;8.760;2023-07-09T11:06:56;24.60;64.70
70947;DHT22;58605;48.700;8.760;2023-07-09T11:09:27;24.60;64.30
70947;DHT22;58605;48.700;8.760;2023-07-09T11:11:56;24.70;63.70
70947;DHT22;58605;48.700;8.760;2023-07-09T11:14:29;24.70;63.90
70947;DHT22;58605;48.700;8.760;2023-07-09T11:16:58;24.60;65.30
70947;DHT22;58605;48.700;8.760;2023-07-09T11:19:26;24.60;63.90
70947;DHT22;58605;48.700;8.760;2023-07-09T11:22:06;24.60;63.40
70947;DHT22;58605;48.700;8.760;2023-07-09T11:24:46;24.60;63.20
70947;DHT22;58605;48.700;8.760;2023-07-09T11:27:18;24.70;63.20
70947;DHT22;58605;48.700;8.760;2023-07-09T11:29:57;24.60;63.40
70947;DHT22;58605;48.700;8.760;2023-07-09T11:32:24;24.50;63.50
70947;DHT22;58605;48.700;8.760;2023-07-09T11:37:50;24.70;62.40
70947;DHT22;58605;48.700;8.760;2023-07-09T11:40:44;24.70;61.90
70947;DHT22;58605;48.700;8.760;2023-07-09T11:43:27;24.70;61.40
70947;DHT22;58605;48.700;8.760;2023-07-09T11:45:56;24.70;61.80
70947;DHT22;58605;48.700;8.760;2023-07-09T11:48:33;24.80;61.00
70947;DHT22;58605;48.700;8.760;2023-07-09T11:51:23;24.80;60.80
70947;DHT22;58605;48.700;8.760;2023-07-09T11:53:52;24.80;60.80
70947;DHT22;58605;48.700;8.760;2023-07-09T11:56:20;24.80;60.50
70947;DHT22;58605;48.700;8.760;2023-07-09T11:58:50;24.90;60.60
70947;DHT22;58605;48.700;8.760;2023-07-09T12:01:21;24.90;60.00
70947;DHT22;58605;48.700;8.760;2023-07-09T12:03:48;24.90;60.10
70947;DHT22;58605;48.700;8.760;2023-07-09T12:06:19;25.00;59.20
70947;DHT22;58605;48.700;8.760;2023-07-09T12:08:49;25.50;57.90
70947;DHT22;58605;48.700;8.760;2023-07-09T12:11:21;25.70;55.30
70947;DHT22;58605;48.700;8.760;2023-07-09T12:13:48;25.60;58.30
70947;DHT22;58605;48.700;8.760;2023-07-09T12:16:25;25.40;58.60
70947;DHT22;58605;48.700;8.760;2023-07-09T12:19:21;25.30;58.60
70947;DHT22;58605;48.700;8.760;2023-07-09T12:25:24;25.00;62.10
70947;DHT22;58605;48.700;8.760;2023-07-09T12:27:51;25.00;59.70
70947;DHT22;58605;48.700;8.760;2023-07-09T12:30:20;25.00;59.60
70947;DHT22;58605;48.700;8.760;2023-07-09T12:32:50;25.00;59.50
70947;DHT22;58605;48.700;8.760;2023-07-09T12:35:18;25.20;58.10
70947;DHT22;58605;48.700;8.760;2023-07-09T12:37:52;25.20;58.90
70947;DHT22;58605;48.700;8.760;2023-07-09T12:40:23;25.20;59.00
70947;DHT22;58605;48.700;8.760;2023-07-09T12:43:01;25.20;59.10
70947;DHT22;58605;48.700;8.760;2023-07-09T12:45:34;25.20;58.90
70947;DHT22;58605;48.700;8.760;2023-07-09T12:48:03;25.20;58.70
70947;DHT22;58605;48.700;8.760;2023-07-09T12:50:37;25.30;58.40
70947;DHT22;58605;48.700;8.760;2023-07-09T12:53:38;25.30;58.90
70947;DHT22;58605;48.700;8.760;2023-07-09T12:56:11;25.40;58.30
70947;DHT22;58605;48.700;8.760;2023-07-09T12:58:42;25.30;58.60
70947;DHT22;58605;48.700;8.760;2023-07-09T13:01:23;25.20;59.30
70947;DHT22;58605;48.700;8.760;2023-07-09T13:03:57;25.10;59.30
70947;DHT22;58605;48.700;8.760;2023-07-09T13:06:40;25.10;59.40
70947;DHT22;58605;48.700;8.760;2023-07-09T13:09:16;25.20;58.40
70947;DHT22;58605;48.700;8.760;2023-07-09T13:12:05;25.20;58.70
70947;DHT22;58605;48.700;8.760;2023-07-09T13:14:32;25.20;58.40
70947;DHT22;58605;48.700;8.760;2023-07-09T13:17:06;25.20;57.90
70947;DHT22;58605;48.700;8.760;2023-07-09T13:19:34;25.30;58.00
70947;DHT22;58605;48.700;8.760;2023-07-09T13:24:46;25.40;57.40
70947;DHT22;58605;48.700;8.760;2023-07-09T13:27:19;25.40;57.20
70947;DHT22;58605;48.700;8.760;2023-07-09T13:29:45;25.40;56.70
70947;DHT22;58605;48.700;8.760;2023-07-09T13:32:14;25.50;56.90
70947;DHT22;58605;48.700;8.760;2023-07-09T13:34:42;25.50;56.80
70947;DHT22;58605;48.700;8.760;2023-07-09T13:37:12;25.60;57.00
70947;DHT22;58605;48.700;8.760;2023-07-09T13:39:39;25.40;56.90
70947;DHT22;58605;48.700;8.760;2023-07-09T13:42:15;25.40;57.10
70947;DHT22;58605;48.700;8.760;2023-07-09T13:44:44;25.30;57.40
70947;DHT22;58605;48.700;8.760;2023-07-09T13:47:15;25.40;57.10
70947;DHT22;58605;48.700;8.760;2023-07-09T13:49:44;25.50;56.90
70947;DHT22;58605;48.700;8.760;2023-07-09T13:52:21;25.50;57.10
70947;DHT22;58605;48.700;8.760;2023-07-09T13:55:08;25.40;58.40
70947;DHT22;58605;48.700;8.760;2023-07-09T14:00:49;25.50;57.20
70947;DHT22;58605;48.700;8.760;2023-07-09T14:03:32;25.60;57.00
70947;DHT22;58605;48.700;8.760;2023-07-09T14:06:17;25.70;57.00
70947;DHT22;58605;48.700;8.760;2023-07-09T14:16:33;25.40;58.50
70947;DHT22;58605;48.700;8.760;2023-07-09T14:19:16;25.30;58.60
70947;DHT22;58605;48.700;8.760;2023-07-09T14:34:42;25.60;56.90
70947;DHT22;58605;48.700;8.760;2023-07-09T14:37:09;25.60;55.60
70947;DHT22;58605;48.700;8.760;2023-07-09T14:39:35;25.70;55.70
70947;DHT22;58605;48.700;8.760;2023-07-09T14:42:01;25.80;55.40
70947;DHT22;58605;48.700;8.760;2023-07-09T14:44:29;25.80;55.10
70947;DHT22;58605;48.700;8.760;2023-07-09T14:46:57;25.90;55.30
70947;DHT22;58605;48.700;8.760;2023-07-09T14:49:24;25.90;55.10
70947;DHT22;58605;48.700;8.760;2023-07-09T14:52:00;25.90;54.20
70947;DHT22;58605;48.700;8.760;2023-07-09T14:54:28;26.10;50.30
70947;DHT22;58605;48.700;8.760;2023-07-09T14:56:55;26.50;53.10
70947;DHT22;58605;48.700;8.760;2023-07-09T14:59:27;26.40;53.80
70947;DHT22;58605;48.700;8.760;2023-07-09T15:02:30;26.30;54.00
70947;DHT22;58605;48.700;8.760;2023-07-09T15:05:21;26.10;54.60
70947;DHT22;58605;48.700;8.760;2023-07-09T15:07:49;26.00;54.60
70947;DHT22;58605;48.700;8.760;2023-07-09T15:10:17;26.00;55.10
70947;DHT22;58605;48.700;8.760;2023-07-09T15:12:45;26.00;54.50
70947;DHT22;58605;48.700;8.760;2023-07-09T15:15:16;26.00;54.30
70947;DHT22;58605;48.700;8.760;2023-07-09T15:17:44;26.10;54.10
70947;DHT22;58605;48.700;8.760;2023-07-09T15:20:13;26.10;54.50
70947;DHT22;58605;48.700;8.760;2023-07-09T15:22:41;26.10;54.70
70947;DHT22;58605;48.700;8.760;2023-07-09T15:25:28;26.10;54.40
70947;DHT22;58605;48.700;8.760;2023-07-09T15:27:59;26.10;54.90
70947;DHT22;58605;48.700;8.760;2023-07-09T15:30:27;26.10;55.00
70947;DHT22;58605;48.700;8.760;2023-07-09T15:32:56;26.00;54.50
70947;DHT22;58605;48.700;8.760;2023-07-09T15:35:23;26.00;54.60
70947;DHT22;58605;48.700;8.760;2023-07-09T15:37:49;26.10;54.70
70947;DHT22;58605;48.700;8.760;2023-07-09T15:58:26;26.20;55.10
70947;DHT22;58605;48.700;8.760;2023-07-09T16:01:03;26.20;54.70
70947;DHT22;58605;48.700;8.760;2023-07-09T16:03:48;26.30;54.50
70947;DHT22;58605;48.700;8.760;2023-07-09T16:06:55;26.40;54.60
70947;DHT22;58605;48.700;8.760;2023-07-09T16:10:25;26.40;54.50
70947;DHT22;58605;48.700;8.760;2023-07-09T16:25:22;26.30;54.90
70947;DHT22;58605;48.700;8.760;2023-07-09T16:28:39;26.30;54.60
70947;DHT22;58605;48.700;8.760;2023-07-09T16:34:51;26.40;54.70
70947;DHT22;58605;48.700;8.760;2023-07-09T16:47:20;27.10;54.20
70947;DHT22;58605;48.700;8.760;2023-07-09T16:49:52;27.30;54.40
70947;DHT22;58605;48.700;8.760;2023-07-09T16:52:21;27.40;53.70
70947;DHT22;58605;48.700;8.760;2023-07-09T16:54:51;27.40;53.80
70947;DHT22;58605;48.700;8.760;2023-07-09T16:57:20;27.30;54.20
70947;DHT22;58605;48.700;8.760;2023-07-09T16:59:50;27.20;54.50
70947;DHT22;58605;48.700;8.760;2023-07-09T17:02:31;27.20;54.60
70947;DHT22;58605;48.700;8.760;2023-07-09T17:04:59;27.20;54.60
70947;DHT22;58605;48.700;8.760;2023-07-09T17:07:57;27.10;54.80
70947;DHT22;58605;48.700;8.760;2023-07-09T17:10:53;27.20;55.20
70947;DHT22;58605;48.700;8.760;2023-07-09T17:13:28;27.40;54.60
70947;DHT22;58605;48.700;8.760;2023-07-09T17:15:55;27.50;54.40
70947;DHT22;58605;48.700;8.760;2023-07-09T17:21:56;27.50;55.20
70947;DHT22;58605;48.700;8.760;2023-07-09T17:24:41;27.50;55.10
70947;DHT22;58605;48.700;8.760;2023-07-09T17:27:10;27.50;54.90
70947;DHT22;58605;48.700;8.760;2023-07-09T17:30:07;27.50;55.00
70947;DHT22;58605;48.700;8.760;2023-07-09T17:32:40;27.80;55.90
70947;DHT22;58605;48.700;8.760;2023-07-09T17:35:37;28.70;54.70
70947;DHT22;58605;48.700;8.760;2023-07-09T17:38:16;29.00;53.30
70947;DHT22;58605;48.700;8.760;2023-07-09T17:40:48;28.60;53.40
70947;DHT22;58605;48.700;8.760;2023-07-09T17:43:18;28.30;54.80
70947;DHT22;58605;48.700;8.760;2023-07-09T17:45:49;28.20;54.20
70947;DHT22;58605;48.700;8.760;2023-07-09T17:48:19;28.10;54.60
70947;DHT22;58605;48.700;8.760;2023-07-09T17:50:47;28.00;54.90
70947;DHT22;58605;48.700;8.760;2023-07-09T17:53:40;27.90;55.20
70947;DHT22;58605;48.700;8.760;2023-07-09T17:56:21;27.80;55.50
70947;DHT22;58605;48.700;8.760;2023-07-09T17:58:50;27.70;55.90
70947;DHT22;58605;48.700;8.760;2023-07-09T18:07:45;27.60;57.60
70947;DHT22;58605;48.700;8.760;2023-07-09T18:14:03;28.10;57.10
70947;DHT22;58605;48.700;8.760;2023-07-09T18:16:31;28.40;55.30
70947;DHT22;58605;48.700;8.760;2023-07-09T18:18:58;28.20;55.60
70947;DHT22;58605;48.700;8.760;2023-07-09T18:21:29;28.00;55.90
70947;DHT22;58605;48.700;8.760;2023-07-09T18:23:56;27.90;56.20
70947;DHT22;58605;48.700;8.760;2023-07-09T18:26:22;27.90;56.30
70947;DHT22;58605;48.700;8.760;2023-07-09T18:28:49;27.90;56.80